Time;durP1;ratioP1;P1;durP2;ratioP2;P2;SDS_P1;SDS_P2;PMS_P1;PMS_P2;Temp;Humidity;BMP_temperature;BMP_pressure;BME280_temperature;BME280_humidity;BME280_pressure;Samples;Min_cycle;Max_cycle;Signal;HPM_P1;HPM_P2
2021/03/25 00:02:25;;;;;;;26.90;8.53;;;;;;;22.72;24.14;157110.80;1731979;83;21304;-74
2021/03/25 00:04:57;;;;;;;22.42;8.83;;;;;;;22.74;24.12;157114.75;1753719;81;21301;-74
2021/03/25 00:07:30;;;;;;;22.80;8.73;;;;;;;22.79;24.09;157130.67;1743064;81;21817;-74
2021/03/25 00:10:11;;;;;;;18.77;7.87;;;;;;;22.64;24.25;157089.56;1751959;81;21304;-74
2021/03/25 00:12:43;;;;;;;25.40;8.13;;;;;;;22.81;24.20;157134.63;1731290;82;21160;-74
2021/03/25 00:15:17;;;;;;;19.50;8.90;;;;;;;22.73;24.20;157112.09;1694349;82;21860;-74
2021/03/25 00:17:49;;;;;;;20.50;8.33;;;;;;;22.81;24.16;157135.94;1735922;82;21304;-74
2021/03/25 00:20:23;;;;;;;21.77;7.80;;;;;;;22.78;24.14;157125.36;1722858;83;21142;-74
2021/03/25 00:22:57;;;;;;;22.45;8.43;;;;;;;22.80;24.10;157133.28;1736991;82;21296;-74
2021/03/25 00:25:33;;;;;;;24.27;9.78;;;;;;;22.62;24.24;157084.31;1738624;81;21332;-74
2021/03/25 00:28:06;;;;;;;19.98;8.45;;;;;;;22.76;24.16;157121.36;1735902;82;21195;-74
2021/03/25 00:30:39;;;;;;;20.85;8.63;;;;;;;22.76;24.16;157121.36;1734854;82;21306;-74
2021/03/25 00:33:14;;;;;;;18.70;8.50;;;;;;;22.78;24.18;157126.66;1728546;81;21165;-75
2021/03/25 00:35:48;;;;;;;20.20;8.03;;;;;;;22.82;24.11;157137.28;1735339;81;21815;-74
2021/03/25 00:38:22;;;;;;;18.80;7.72;;;;;;;22.70;24.17;157105.48;1730256;83;21711;-74
2021/03/25 00:40:54;;;;;;;19.57;8.13;;;;;;;22.45;24.34;157037.95;1732049;82;21178;-75
2021/03/25 00:43:27;;;;;;;21.02;8.25;;;;;;;22.61;24.27;157081.66;1737406;80;21212;-74
2021/03/25 00:46:00;;;;;;;19.90;8.30;;;;;;;22.13;24.64;156954.47;1732043;83;21316;-74
2021/03/25 00:48:33;;;;;;;19.62;8.35;;;;;;;22.13;24.65;156954.47;1728086;82;21324;-76
2021/03/25 00:51:07;;;;;;;19.62;8.03;;;;;;;22.13;24.65;156953.11;1740129;82;21318;-74
2021/03/25 00:53:41;;;;;;;19.57;7.75;;;;;;;22.14;24.59;156957.11;1733471;80;21311;-74
2021/03/25 00:56:13;;;;;;;20.45;8.20;;;;;;;22.17;24.60;156965.03;1736776;82;21363;-74
2021/03/25 00:58:46;;;;;;;18.10;7.65;;;;;;;22.04;24.60;156930.64;1732698;83;21800;-74
2021/03/25 01:01:19;;;;;;;20.68;8.30;;;;;;;22.45;24.34;157039.25;1729629;82;21401;-74
2021/03/25 01:03:53;;;;;;;21.02;8.88;;;;;;;21.91;24.71;156894.86;1726850;81;21162;-75
2021/03/25 01:06:26;;;;;;;18.20;9.03;;;;;;;21.82;24.76;156869.69;1731920;83;21700;-72
2021/03/25 01:08:58;;;;;;;18.67;8.08;;;;;;;21.75;24.86;156852.53;1729373;83;21737;-74
2021/03/25 01:11:32;;;;;;;16.30;7.60;;;;;;;21.69;24.94;156835.33;1702302;84;21824;-74
2021/03/25 01:14:09;;;;;;;22.67;8.58;;;;;;;21.96;24.78;156909.42;1714400;81;21328;-74
2021/03/25 01:16:44;;;;;;;18.70;8.28;;;;;;;21.96;24.71;156908.13;1724531;82;21176;-74
2021/03/25 01:19:28;;;;;;;19.73;8.00;;;;;;;21.78;24.88;156859.14;1768435;81;21151;-75
2021/03/25 01:22:01;;;;;;;18.35;8.68;;;;;;;21.71;24.91;156840.58;1756669;81;21342;-74
2021/03/25 01:24:35;;;;;;;15.15;7.62;;;;;;;21.70;24.94;156837.97;1701592;83;21215;-74
2021/03/25 01:27:09;;;;;;;21.33;7.92;;;;;;;21.72;24.93;156844.58;1733034;83;21377;-74
2021/03/25 01:29:44;;;;;;;19.17;8.35;;;;;;;21.72;24.93;156844.58;1735777;82;21146;-74
2021/03/25 01:32:17;;;;;;;18.45;8.05;;;;;;;21.64;24.99;156822.06;1728403;82;21222;-74
2021/03/25 01:34:50;;;;;;;20.90;8.25;;;;;;;21.59;25.01;156810.16;1720472;81;21681;-74
2021/03/25 01:37:24;;;;;;;23.22;10.15;;;;;;;21.54;25.05;156796.84;1722356;82;21174;-74
2021/03/25 01:39:59;;;;;;;20.05;8.33;;;;;;;21.55;25.04;156798.20;1728807;82;21320;-75
2021/03/25 01:42:35;;;;;;;21.62;8.75;;;;;;;21.55;25.08;156799.50;1728404;83;21405;-75
2021/03/25 01:45:33;;;;;;;23.12;10.23;;;;;;;21.54;25.10;156796.84;1725188;82;21717;-74
2021/03/25 01:48:06;;;;;;;17.20;8.45;;;;;;;21.54;25.12;156795.56;1739799;82;21190;-75
2021/03/25 01:50:41;;;;;;;24.37;8.70;;;;;;;21.53;25.12;156792.91;1739235;82;21371;-75
2021/03/25 01:53:44;;;;;;;24.50;9.28;;;;;;;21.53;25.10;156792.91;1729866;81;21211;-74
2021/03/25 01:57:03;;;;;;;20.52;8.98;;;;;;;21.51;25.12;156788.95;1726025;82;21321;-74
2021/03/25 02:00:18;;;;;;;21.25;8.33;;;;;;;21.40;25.21;156759.84;1740056;82;21351;-74
2021/03/25 02:03:23;;;;;;;20.10;8.40;;;;;;;21.29;25.29;156730.73;1738283;81;21661;-74
2021/03/25 02:06:08;;;;;;;18.45;8.90;;;;;;;21.26;25.33;156721.44;1675913;84;21227;-74
2021/03/25 02:09:08;;;;;;;23.77;9.75;;;;;;;21.31;25.30;156734.69;1700906;84;21179;-74
2021/03/25 02:12:15;;;;;;;21.57;8.90;;;;;;;21.31;25.37;156734.69;1681485;84;21349;-73
2021/03/25 02:15:03;;;;;;;17.82;8.45;;;;;;;21.22;25.44;156710.87;1680221;83;22071;-73
2021/03/25 02:17:51;;;;;;;17.05;8.10;;;;;;;21.23;25.40;156713.53;1660198;86;21203;-73
2021/03/25 02:20:33;;;;;;;20.30;8.88;;;;;;;21.19;25.44;156704.22;1647177;86;21737;-74
2021/03/25 02:23:22;;;;;;;14.53;7.30;;;;;;;21.14;25.42;156691.03;1664910;84;21169;-74
2021/03/25 02:25:59;;;;;;;19.42;8.35;;;;;;;21.02;25.54;156659.27;1688416;85;21194;-74
2021/03/25 02:28:47;;;;;;;18.98;8.33;;;;;;;20.95;25.61;156639.42;1679806;84;21317;-73
2021/03/25 02:31:26;;;;;;;16.70;7.47;;;;;;;20.92;25.64;156630.17;1668880;86;21318;-74
2021/03/25 02:34:05;;;;;;;16.87;7.97;;;;;;;21.02;25.57;156657.92;1709512;82;21185;-74
2021/03/25 02:37:09;;;;;;;14.13;7.08;;;;;;;21.04;25.51;156663.22;1710624;83;21203;-74
2021/03/25 02:40:09;;;;;;;16.25;6.58;;;;;;;21.06;25.55;156669.81;1718827;82;21169;-74
2021/03/25 02:42:50;;;;;;;14.68;7.20;;;;;;;21.02;25.52;156657.92;1737121;82;21177;-74
2021/03/25 02:45:32;;;;;;;11.93;6.17;;;;;;;20.88;25.60;156619.58;1726090;81;21234;-74
2021/03/25 02:48:13;;;;;;;15.00;6.70;;;;;;;20.79;25.71;156597.08;1725940;82;21349;-74
2021/03/25 02:50:51;;;;;;;17.77;7.20;;;;;;;20.53;25.86;156528.30;1726071;83;21215;-74
2021/03/25 02:53:32;;;;;;;18.60;7.17;;;;;;;20.50;25.89;156520.36;1730637;81;21701;-74
2021/03/25 02:56:15;;;;;;;12.13;6.15;;;;;;;20.53;25.90;156526.94;1729787;82;21157;-74
2021/03/25 02:58:53;;;;;;;17.42;7.25;;;;;;;20.47;25.92;156511.11;1738104;82;21320;-74
2021/03/25 03:01:25;;;;;;;14.00;6.65;;;;;;;20.45;25.93;156505.81;1740448;82;21222;-75
2021/03/25 03:04:03;;;;;;;13.78;6.85;;;;;;;20.44;25.96;156503.16;1734525;81;21190;-74
2021/03/25 03:06:50;;;;;;;17.35;7.25;;;;;;;20.36;26.05;156482.03;1751521;81;21295;-74
2021/03/25 03:09:28;;;;;;;15.15;6.67;;;;;;;20.34;26.06;156476.72;1699831;82;21166;-74
2021/03/25 03:12:04;;;;;;;13.75;7.05;;;;;;;20.32;26.11;156471.42;1705659;82;21179;-75
2021/03/25 03:14:46;;;;;;;15.23;6.53;;;;;;;20.22;26.15;156445.00;1742357;81;21167;-75
2021/03/25 03:17:27;;;;;;;18.05;7.33;;;;;;;20.22;26.18;156445.00;1714804;83;21774;-75
2021/03/25 03:20:14;;;;;;;13.03;6.22;;;;;;;20.37;26.18;156484.67;1672195;85;21234;-76
2021/03/25 03:22:49;;;;;;;15.80;6.33;;;;;;;20.17;26.22;156431.75;1707871;83;21237;-74
2021/03/25 03:25:25;;;;;;;16.70;6.72;;;;;;;20.34;26.05;156476.72;1698150;84;21930;-75
2021/03/25 03:28:18;;;;;;;17.73;6.90;;;;;;;20.24;26.13;156450.28;1701198;84;21305;-75
2021/03/25 03:30:58;;;;;;;11.43;5.97;;;;;;;20.18;26.24;156434.41;1701961;84;21227;-74
2021/03/25 03:33:43;;;;;;;16.93;6.67;;;;;;;20.23;26.21;156447.64;1678051;84;21333;-75
2021/03/25 03:36:22;;;;;;;15.40;7.05;;;;;;;20.89;25.72;156622.22;1673972;86;21189;-74
2021/03/25 03:39:08;;;;;;;13.28;6.70;;;;;;;21.05;25.54;156667.22;1666202;85;21153;-75
2021/03/25 03:41:51;;;;;;;14.53;5.97;;;;;;;20.35;26.03;156480.67;1668273;86;21175;-75
2021/03/25 03:44:35;;;;;;;14.93;6.80;;;;;;;20.29;26.14;156464.83;1669200;85;21255;-75
2021/03/25 03:47:09;;;;;;;22.87;6.87;;;;;;;20.42;26.04;156497.86;1664269;86;21302;-75
2021/03/25 03:50:18;;;;;;;14.13;6.50;;;;;;;20.36;26.06;156482.03;1663030;86;21747;-75
2021/03/25 03:52:51;;;;;;;17.45;7.70;;;;;;;20.42;26.06;156499.22;1644118;86;21350;-76
2021/03/25 03:55:24;;;;;;;20.80;8.35;;;;;;;20.39;26.06;156489.91;1660323;84;21702;-76
2021/03/25 03:58:17;;;;;;;20.72;7.15;;;;;;;20.32;26.11;156472.72;1663959;86;21171;-76
2021/03/25 04:01:00;;;;;;;15.00;7.15;;;;;;;20.22;26.19;156445.00;1646735;87;21224;-76
2021/03/25 04:03:45;;;;;;;18.87;7.87;;;;;;;20.16;26.24;156430.45;1648940;84;21200;-75
2021/03/25 04:06:48;;;;;;;20.92;7.83;;;;;;;20.17;26.25;156433.09;1713281;83;21322;-74
2021/03/25 04:09:33;;;;;;;14.38;7.05;;;;;;;20.31;26.19;156468.78;1670301;84;21222;-75
2021/03/25 04:12:13;;;;;;;16.60;7.62;;;;;;;20.36;26.14;156482.03;1641381;87;21403;-76
2021/03/25 04:15:03;;;;;;;16.40;6.58;;;;;;;20.40;26.13;156493.91;1652994;85;21239;-74
2021/03/25 04:17:40;;;;;;;18.82;7.42;;;;;;;20.38;26.13;156487.27;1705036;84;21215;-74
2021/03/25 04:20:20;;;;;;;18.15;7.33;;;;;;;20.41;26.15;156496.56;1667826;85;21335;-74
2021/03/25 04:23:13;;;;;;;15.90;6.45;;;;;;;20.42;26.12;156499.22;1650492;85;21195;-74
2021/03/25 04:26:24;;;;;;;14.33;7.40;;;;;;;20.53;26.10;156526.94;1726387;81;21166;-74
2021/03/25 04:29:06;;;;;;;17.42;7.40;;;;;;;20.57;26.08;156537.55;1732414;82;21733;-74
2021/03/25 04:31:39;;;;;;;20.45;7.17;;;;;;;20.62;26.07;156550.73;1744131;81;21940;-73
2021/03/25 04:34:12;;;;;;;20.80;9.05;;;;;;;20.40;26.21;156493.91;1731755;81;21864;-78
2021/03/25 04:36:46;;;;;;;19.10;8.88;;;;;;;20.36;26.25;156482.03;1728876;81;21151;-76
2021/03/25 04:39:19;;;;;;;18.85;8.68;;;;;;;20.54;26.11;156530.89;1719577;81;21962;-84
2021/03/25 04:41:52;;;;;;;21.07;7.67;;;;;;;20.50;26.20;156519.00;1680692;83;21826;-83
2021/03/25 04:44:47;;;;;;;18.37;7.58;;;;;;;20.39;26.31;156489.91;1662430;84;21199;-78
2021/03/25 04:47:29;;;;;;;19.70;8.85;;;;;;;20.35;26.40;156479.38;1715427;81;21701;-79
2021/03/25 04:50:29;;;;;;;18.42;8.28;;;;;;;20.41;26.38;156496.56;1720885;81;21262;-77
2021/03/25 04:53:20;;;;;;;17.20;8.83;;;;;;;20.56;26.23;156536.19;1682729;84;21263;-77
2021/03/25 04:55:54;;;;;;;20.52;8.68;;;;;;;20.66;26.29;156562.63;1677045;82;21234;-78
2021/03/25 04:58:34;;;;;;;24.47;10.35;;;;;;;20.76;26.29;156587.78;1679401;83;21210;-81
2021/03/25 05:01:10;;;;;;;22.25;9.33;;;;;;;20.86;26.21;156615.63;1674976;83;21199;-79
2021/03/25 05:03:43;;;;;;;19.77;7.78;;;;;;;21.01;26.11;156656.63;1687787;82;21238;-75
2021/03/25 05:06:26;;;;;;;14.63;7.08;;;;;;;21.13;25.99;156687.03;1684925;82;21321;-76
2021/03/25 05:09:01;;;;;;;15.03;7.35;;;;;;;21.19;25.92;156702.92;1682878;82;21221;-76
2021/03/25 05:11:36;;;;;;;15.38;5.67;;;;;;;21.68;25.39;156833.97;1682994;82;21702;-82
2021/03/25 05:14:26;;;;;;;13.50;6.55;;;;;;;21.49;25.59;156783.66;1682126;82;21187;-73
2021/03/25 05:17:33;;;;;;;14.55;5.58;;;;;;;21.65;25.47;156826.02;1682874;82;21242;-81
2021/03/25 05:20:22;;;;;;;12.10;6.10;;;;;;;21.81;25.47;156868.39;1686855;82;21237;-76
2021/03/25 05:23:16;;;;;;;12.33;5.50;;;;;;;21.97;25.23;156912.06;1685088;82;21348;-75
2021/03/25 05:26:00;;;;;;;13.40;6.30;;;;;;;22.01;25.19;156921.33;1687152;82;21437;-83
2021/03/25 05:28:40;;;;;;;14.53;6.47;;;;;;;22.23;25.02;156979.58;1683662;82;21856;-77
2021/03/25 05:31:14;;;;;;;12.73;5.28;;;;;;;22.35;24.92;157011.42;1684302;83;21207;-75
2021/03/25 05:33:52;;;;;;;13.08;6.40;;;;;;;22.37;24.89;157016.72;1682372;82;21313;-76
2021/03/25 05:36:25;;;;;;;14.58;6.05;;;;;;;22.35;24.72;157012.77;1682049;82;21186;-77
2021/03/25 05:38:58;;;;;;;16.80;6.05;;;;;;;22.53;24.68;157059.13;1691446;82;21194;-74
2021/03/25 05:41:57;;;;;;;12.43;6.17;;;;;;;22.49;24.76;157049.86;1683520;82;21892;-75
2021/03/25 05:44:37;;;;;;;13.32;5.92;;;;;;;22.55;24.67;157065.73;1686043;82;21218;-76
2021/03/25 05:47:27;;;;;;;12.53;6.25;;;;;;;22.59;24.66;157075.00;1684162;82;21388;-78
2021/03/25 05:50:42;;;;;;;16.10;5.37;;;;;;;22.56;24.61;157068.39;1680147;83;21179;-75
2021/03/25 05:53:38;;;;;;;11.38;5.53;;;;;;;22.78;24.30;157128.02;1681262;82;21388;-78
2021/03/25 05:56:25;;;;;;;12.50;5.05;;;;;;;22.92;24.26;157165.08;1682066;83;21230;-72
2021/03/25 05:59:05;;;;;;;12.20;4.95;;;;;;;23.07;24.14;157204.89;1692813;82;21884;-74
2021/03/25 06:01:57;;;;;;;13.98;6.12;;;;;;;23.11;24.15;157214.16;1700540;84;21169;-73
2021/03/25 06:04:37;;;;;;;12.60;5.60;;;;;;;23.20;24.07;157239.34;1700021;82;21415;-74
2021/03/25 06:07:26;;;;;;;12.43;5.55;;;;;;;23.37;23.89;157283.08;1740573;80;21296;-72
2021/03/25 06:10:12;;;;;;;10.20;4.75;;;;;;;23.43;23.84;157300.31;1715119;81;21365;-72
2021/03/25 06:13:14;;;;;;;10.50;4.75;;;;;;;23.52;23.71;157322.86;1735837;81;21284;-72
2021/03/25 06:16:10;;;;;;;11.70;4.78;;;;;;;23.54;23.59;157328.17;1731975;82;21392;-73
2021/03/25 06:19:15;;;;;;;10.72;5.08;;;;;;;23.62;23.47;157349.36;1727240;83;21178;-73
2021/03/25 06:22:15;;;;;;;9.88;4.28;;;;;;;23.69;23.42;157370.56;1709317;84;21261;-72
2021/03/25 06:25:18;;;;;;;14.20;4.90;;;;;;;23.89;23.35;157423.69;1671685;86;21751;-74
2021/03/25 06:28:01;;;;;;;8.90;4.17;;;;;;;24.09;23.27;157475.36;1671194;83;21751;-73
2021/03/25 06:30:49;;;;;;;8.20;4.08;;;;;;;24.24;23.01;157515.16;1702252;84;21197;-75
2021/03/25 06:33:40;;;;;;;8.35;4.42;;;;;;;24.38;22.81;157553.61;1711730;83;21206;-73
2021/03/25 06:36:14;;;;;;;8.88;4.03;;;;;;;24.52;22.83;157590.81;1712225;83;21329;-74
2021/03/25 06:38:57;;;;;;;8.38;3.65;;;;;;;24.73;22.76;157647.88;1770666;81;21234;-72
2021/03/25 06:41:59;;;;;;;12.73;4.22;;;;;;;24.77;22.72;157657.16;1765646;81;21303;-72
2021/03/25 06:45:07;;;;;;;9.85;3.42;;;;;;;24.76;22.29;157654.50;1765291;81;21656;-72
2021/03/25 06:48:04;;;;;;;7.67;3.55;;;;;;;24.75;22.26;157653.20;1750871;81;21276;-73
2021/03/25 06:50:44;;;;;;;10.72;3.87;;;;;;;24.80;22.26;157665.12;1739543;82;21284;-73
2021/03/25 06:53:27;;;;;;;7.67;4.37;;;;;;;24.88;22.19;157687.66;1739481;82;21162;-74
2021/03/25 06:56:14;;;;;;;15.88;5.50;;;;;;;25.00;22.28;157719.50;1739475;82;21147;-73
2021/03/25 06:58:55;;;;;;;7.78;4.03;;;;;;;25.12;22.22;157751.41;1739095;82;21142;-73
2021/03/25 07:01:43;;;;;;;11.63;4.20;;;;;;;25.27;21.98;157789.94;1738252;82;21284;-75
2021/03/25 07:04:22;;;;;;;10.90;4.78;;;;;;;25.36;22.10;157813.81;1739438;82;21796;-75
2021/03/25 07:07:05;;;;;;;9.63;4.70;;;;;;;25.50;21.99;157851.00;1741433;81;21162;-73
2021/03/25 07:09:39;;;;;;;7.58;4.20;;;;;;;25.58;21.94;157874.89;1752958;81;21315;-73
2021/03/25 07:12:37;;;;;;;7.95;3.70;;;;;;;25.71;21.81;157908.06;1751100;82;21319;-73
2021/03/25 07:15:25;;;;;;;10.48;3.15;;;;;;;25.91;21.73;157961.28;1751107;82;21347;-74
2021/03/25 07:17:58;;;;;;;5.58;3.10;;;;;;;26.06;21.52;158002.44;1766756;80;21171;-74
2021/03/25 07:20:35;;;;;;;3.35;2.37;;;;;;;26.13;21.34;158019.70;1779093;80;21154;-74
2021/03/25 07:23:11;;;;;;;4.85;2.30;;;;;;;26.21;20.62;158040.94;1779283;80;21324;-73
2021/03/25 07:25:50;;;;;;;5.72;2.20;;;;;;;26.37;20.73;158083.47;1779200;80;21360;-75
2021/03/25 07:28:26;;;;;;;5.28;2.25;;;;;;;26.80;20.09;158200.44;1750599;80;21201;-73
2021/03/25 07:31:04;;;;;;;3.12;1.80;;;;;;;26.80;20.09;158200.44;1738764;80;21269;-73
2021/03/25 10:44:34;;;;;;;2.90;2.10;;;;;;;43.97;12.08;162816.78;1854958;76;28029;-73
2021/03/25 10:47:19;;;;;;;2.62;1.62;;;;;;;43.67;11.91;162734.70;1748699;82;21184;-74
2021/03/25 10:50:01;;;;;;;3.92;1.57;;;;;;;42.78;12.28;162495.38;1762977;81;21377;-73
2021/03/25 10:52:42;;;;;;;4.35;1.67;;;;;;;42.19;12.37;162335.39;1762689;81;21337;-73
2021/03/25 10:55:32;;;;;;;2.55;1.95;;;;;;;42.16;12.32;162328.69;1763061;81;21333;-73
2021/03/25 10:58:05;;;;;;;2.35;1.80;;;;;;;41.60;12.55;162175.55;1776492;81;21320;-73
2021/03/25 11:00:39;;;;;;;2.47;1.90;;;;;;;40.51;12.54;161882.77;1776811;81;22005;-75
2021/03/25 11:03:31;;;;;;;2.50;1.90;;;;;;;39.61;12.71;161638.53;1776674;81;21336;-75
2021/03/25 11:06:05;;;;;;;2.47;1.82;;;;;;;39.01;12.93;161478.91;1776419;79;21328;-74
2021/03/25 11:08:43;;;;;;;3.62;1.50;;;;;;;38.39;13.02;161311.33;1776589;81;21333;-74
2021/03/25 11:11:23;;;;;;;4.45;2.30;;;;;;;38.33;12.96;161295.22;1776582;81;21170;-75
2021/03/25 11:14:03;;;;;;;6.22;2.45;;;;;;;38.14;13.22;161244.28;1776760;79;22165;-77
2021/03/25 11:16:36;;;;;;;5.70;2.30;;;;;;;38.02;13.42;161210.81;1775178;81;21388;-74
2021/03/25 11:19:11;;;;;;;4.17;1.80;;;;;;;38.64;12.97;161376.97;1771711;81;21332;-74
2021/03/25 11:21:45;;;;;;;4.00;2.58;;;;;;;38.99;12.87;161473.53;1776230;81;21317;-75
2021/03/25 11:24:28;;;;;;;9.10;2.55;;;;;;;39.05;12.94;161489.64;1776331;81;21176;-75
2021/03/25 11:27:04;;;;;;;6.10;3.80;;;;;;;39.14;12.81;161513.81;1776499;81;21427;-74
2021/03/25 11:29:38;;;;;;;9.20;4.28;;;;;;;38.91;12.99;161449.42;1776495;81;21380;-74
2021/03/25 11:32:26;;;;;;;5.15;2.80;;;;;;;38.98;13.06;161470.84;1765207;81;21433;-75
2021/03/25 11:35:20;;;;;;;5.25;2.27;;;;;;;39.50;12.81;161610.41;1732779;83;21276;-75
2021/03/25 11:37:53;;;;;;;6.20;2.42;;;;;;;40.03;12.81;161752.59;1732861;83;21735;-74
2021/03/25 11:40:43;;;;;;;3.17;2.10;;;;;;;39.99;12.75;161743.22;1732729;81;21232;-75
2021/03/25 11:43:19;;;;;;;2.50;2.10;;;;;;;40.15;12.88;161784.80;1732709;81;21336;-75
2021/03/25 11:45:55;;;;;;;4.60;2.33;;;;;;;40.50;12.56;161880.13;1732081;83;21939;-74
2021/03/25 11:48:34;;;;;;;6.65;2.70;;;;;;;40.87;12.73;161978.13;1709578;83;21186;-75
2021/03/25 11:51:23;;;;;;;3.40;2.08;;;;;;;41.48;12.65;162143.27;1732299;83;21249;-76
2021/03/25 11:53:57;;;;;;;2.25;1.60;;;;;;;41.87;12.30;162249.39;1732120;83;21700;-79
2021/03/25 11:56:40;;;;;;;3.15;2.30;;;;;;;42.35;12.02;162378.44;1732186;83;21332;-75
2021/03/25 11:59:29;;;;;;;3.42;1.77;;;;;;;43.01;11.93;162557.19;1732432;83;21237;-75
2021/03/25 12:02:23;;;;;;;2.62;1.70;;;;;;;43.52;11.72;162695.72;1732280;83;21375;-76
2021/03/25 12:04:57;;;;;;;3.25;2.02;;;;;;;44.08;11.57;162847.72;1732413;83;21340;-74
2021/03/25 12:07:29;;;;;;;2.87;1.70;;;;;;;43.79;11.54;162766.97;1732126;83;21351;-75
2021/03/25 12:10:22;;;;;;;4.00;1.85;;;;;;;43.37;11.68;162654.02;1732247;83;21759;-74
2021/03/25 12:12:56;;;;;;;1.47;1.35;;;;;;;43.36;11.61;162651.31;1732280;83;21336;-74
2021/03/25 12:15:30;;;;;;;3.30;1.60;;;;;;;42.78;11.71;162495.38;1732164;83;21447;-75
2021/03/25 12:18:10;;;;;;;2.12;1.50;;;;;;;42.44;11.62;162402.61;1732428;81;21527;-76
2021/03/25 12:20:44;;;;;;;3.15;2.15;;;;;;;41.66;11.73;162191.69;1732108;83;21871;-75
2021/03/25 12:23:22;;;;;;;1.42;1.30;;;;;;;41.40;11.87;162121.81;1732080;83;21820;-75
2021/03/25 12:25:59;;;;;;;2.52;1.50;;;;;;;41.36;11.75;162112.42;1732376;83;21174;-76
2021/03/25 12:28:32;;;;;;;2.25;1.55;;;;;;;41.53;12.17;162158.03;1732396;83;21253;-77
2021/03/25 12:31:05;;;;;;;3.35;1.67;;;;;;;41.86;11.82;162246.70;1732201;83;21332;-75
2021/03/25 12:33:39;;;;;;;2.98;1.80;;;;;;;41.62;11.82;162180.92;1732026;81;21182;-75
2021/03/25 12:36:12;;;;;;;2.50;1.30;;;;;;;41.11;12.01;162043.88;1731925;83;21855;-74
2021/03/25 12:38:46;;;;;;;1.90;1.30;;;;;;;40.12;11.98;161778.09;1732186;81;21177;-76
2021/03/25 12:41:38;;;;;;;2.12;1.55;;;;;;;38.96;12.62;161464.16;1703358;83;21285;-75
2021/03/25 12:44:12;;;;;;;3.02;1.60;;;;;;;38.27;12.79;161279.17;1732942;81;21359;-75
2021/03/25 12:46:47;;;;;;;4.12;1.52;;;;;;;37.38;12.87;161037.97;1740794;82;21200;-74
2021/03/25 12:49:20;;;;;;;2.58;1.32;;;;;;;36.68;13.04;160849.08;1753759;82;21877;-75
2021/03/25 12:51:53;;;;;;;3.33;1.77;;;;;;;36.40;13.18;160775.42;1727794;83;21348;-75
2021/03/25 12:54:26;;;;;;;2.15;1.55;;;;;;;36.42;13.44;160779.41;1753501;82;21271;-75
2021/03/25 12:57:01;;;;;;;3.20;1.95;;;;;;;36.17;13.57;160713.87;1727900;83;21237;-74
2021/03/25 12:59:34;;;;;;;3.40;2.20;;;;;;;35.84;13.69;160622.84;1753599;82;21366;-75
2021/03/25 13:02:07;;;;;;;2.98;2.08;;;;;;;35.22;13.90;160456.94;1727731;83;21387;-75
2021/03/25 13:04:40;;;;;;;3.75;2.45;;;;;;;34.74;13.69;160328.53;1723536;83;21371;-75
2021/03/25 13:07:14;;;;;;;2.95;1.72;;;;;;;34.24;14.11;160193.50;1698746;84;21843;-74
2021/03/25 13:09:47;;;;;;;2.40;1.72;;;;;;;34.01;14.00;160130.69;1723685;83;21392;-74
2021/03/25 13:12:26;;;;;;;1.22;1.05;;;;;;;33.81;14.01;160078.56;1700581;83;21910;-75
2021/03/25 13:14:59;;;;;;;3.30;1.70;;;;;;;33.43;14.14;159975.69;1737949;82;21886;-77
2021/03/25 13:17:31;;;;;;;2.15;1.40;;;;;;;33.35;14.43;159954.28;1737963;82;21336;-74
2021/03/25 13:20:08;;;;;;;2.10;1.20;;;;;;;33.22;14.35;159920.92;1733875;82;21846;-74
2021/03/25 13:22:41;;;;;;;3.40;1.75;;;;;;;33.01;14.23;159862.13;1738093;82;21918;-75
2021/03/25 13:25:24;;;;;;;3.95;2.42;;;;;;;32.73;14.48;159787.34;1738015;82;21339;-74
2021/03/25 13:27:57;;;;;;;4.08;1.70;;;;;;;32.55;14.65;159740.58;1737949;82;21170;-75
2021/03/25 13:30:30;;;;;;;2.98;1.95;;;;;;;32.46;14.95;159716.56;1737960;82;21386;-75
2021/03/25 13:33:03;;;;;;;3.40;1.85;;;;;;;32.50;15.10;159727.25;1737841;81;21324;-76
2021/03/25 13:35:38;;;;;;;2.72;2.20;;;;;;;32.52;15.05;159732.56;1737841;81;21225;-74
2021/03/25 13:38:11;;;;;;;4.05;2.15;;;;;;;32.50;15.23;159725.91;1737811;82;21383;-76
2021/03/25 13:40:44;;;;;;;3.65;2.27;;;;;;;32.44;15.31;159709.91;1737907;82;21250;-75
2021/03/25 13:43:22;;;;;;;2.83;2.00;;;;;;;32.46;15.40;159716.56;1737855;82;21367;-75
2021/03/25 13:45:56;;;;;;;3.27;2.33;;;;;;;32.71;15.42;159782.00;1733107;81;21411;-77
2021/03/25 13:48:30;;;;;;;4.28;2.33;;;;;;;32.45;15.56;159713.89;1716098;83;21700;-75
2021/03/25 13:51:06;;;;;;;2.80;1.90;;;;;;;32.03;15.66;159599.09;1724401;83;21210;-78
2021/03/25 13:53:38;;;;;;;3.22;1.95;;;;;;;31.95;15.81;159579.08;1721173;83;21646;-77
2021/03/25 13:56:12;;;;;;;5.37;2.20;;;;;;;32.14;15.82;159628.50;1706793;81;21209;-77
2021/03/25 13:58:46;;;;;;;4.53;2.40;;;;;;;32.09;15.97;159615.14;1699011;83;21269;-78
2021/03/25 14:01:19;;;;;;;4.92;2.52;;;;;;;32.02;16.09;159596.42;1698731;83;21193;-77
2021/03/25 14:03:54;;;;;;;6.08;2.80;;;;;;;32.09;15.93;159615.14;1701236;81;21268;-77
2021/03/25 14:06:27;;;;;;;5.25;2.77;;;;;;;32.18;15.80;159639.14;1698594;83;21293;-82
2021/03/25 14:09:01;;;;;;;3.83;2.70;;;;;;;31.95;16.01;159579.08;1699759;82;21177;-78
2021/03/25 14:11:35;;;;;;;3.37;2.08;;;;;;;31.64;16.19;159496.39;1697436;83;21527;-79
2021/03/25 14:14:09;;;;;;;3.62;2.20;;;;;;;31.53;16.37;159465.64;1708602;83;21233;-78
2021/03/25 14:16:42;;;;;;;4.62;2.70;;;;;;;31.37;16.42;159422.94;1704977;83;22009;-78
2021/03/25 14:19:15;;;;;;;3.65;2.72;;;;;;;31.12;16.67;159354.97;1704113;83;21182;-77
2021/03/25 14:21:49;;;;;;;2.95;2.25;;;;;;;31.06;16.65;159340.30;1694793;83;21248;-77
2021/03/25 14:24:22;;;;;;;5.90;3.05;;;;;;;31.06;16.96;159338.98;1699199;83;21800;-78
2021/03/25 14:26:55;;;;;;;4.17;2.70;;;;;;;31.05;16.88;159336.31;1703152;83;21276;-76
2021/03/25 14:29:29;;;;;;;6.53;2.80;;;;;;;31.04;17.00;159333.64;1701895;83;21825;-77
2021/03/25 14:32:01;;;;;;;3.92;2.35;;;;;;;30.90;16.98;159296.25;1704527;82;21190;-76
2021/03/25 14:34:36;;;;;;;6.30;3.00;;;;;;;30.73;17.02;159250.91;1705870;83;21752;-78
2021/03/25 14:37:10;;;;;;;3.58;2.22;;;;;;;30.53;16.77;159198.97;1701333;83;21971;-76
2021/03/25 14:39:44;;;;;;;5.40;3.40;;;;;;;30.38;16.83;159157.63;1704378;83;21830;-77
2021/03/25 14:42:19;;;;;;;6.67;2.35;;;;;;;30.30;17.13;159134.95;1706232;82;21246;-79
2021/03/25 14:44:53;;;;;;;7.20;3.30;;;;;;;30.38;17.21;159158.92;1702722;83;21273;-77
2021/03/25 14:47:26;;;;;;;8.23;3.35;;;;;;;29.97;17.29;159047.03;1700736;83;21243;-78
2021/03/25 14:49:59;;;;;;;7.70;3.58;;;;;;;29.84;17.06;159013.64;1704294;83;21260;-84
2021/03/25 14:52:33;;;;;;;5.55;3.05;;;;;;;29.66;17.22;158964.36;1700732;83;21241;-78
2021/03/25 14:55:08;;;;;;;7.35;2.85;;;;;;;29.47;17.37;158913.77;1705144;83;21456;-79
2021/03/25 14:57:41;;;;;;;7.22;3.02;;;;;;;29.37;17.35;158888.41;1704640;83;21240;-77
2021/03/25 15:00:18;;;;;;;9.05;3.60;;;;;;;29.23;17.53;158849.80;1704039;83;21225;-77
2021/03/25 15:02:51;;;;;;;10.45;3.60;;;;;;;29.14;17.59;158825.84;1711195;83;22258;-80
2021/03/25 15:05:26;;;;;;;7.65;3.47;;;;;;;29.03;17.78;158796.56;1703828;83;21874;-79
2021/03/25 15:07:59;;;;;;;11.00;4.33;;;;;;;28.97;17.72;158780.56;1704766;83;21260;-78
2021/03/25 15:10:32;;;;;;;20.05;8.00;;;;;;;29.19;17.67;158839.13;1701496;83;21272;-75
2021/03/25 15:13:07;;;;;;;12.43;5.37;;;;;;;29.10;17.78;158815.17;1703167;83;21771;-76
2021/03/25 15:15:40;;;;;;;12.70;4.08;;;;;;;29.03;17.98;158796.56;1701243;83;21979;-81
2021/03/25 15:18:13;;;;;;;13.00;4.08;;;;;;;28.90;18.01;158761.94;1702987;83;21297;-78
2021/03/25 15:20:51;;;;;;;10.82;4.22;;;;;;;28.85;18.12;158747.31;1705315;83;21189;-78
2021/03/25 15:23:27;;;;;;;11.30;4.22;;;;;;;28.85;18.09;158748.61;1704945;81;21811;-78
2021/03/25 15:26:05;;;;;;;11.15;4.45;;;;;;;28.87;18.12;158752.62;1702259;81;21253;-77
2021/03/25 15:28:38;;;;;;;13.13;4.60;;;;;;;28.77;18.31;158727.28;1700903;83;21213;-76
2021/03/25 15:31:12;;;;;;;13.00;5.37;;;;;;;28.68;18.40;158701.97;1702911;83;21257;-77